createdAt,value
2023-05-06T00:03:19.117Z,100
2023-05-06T00:13:20.041Z,100
2023-05-06T00:23:20.614Z,100
2023-05-06T00:33:21.388Z,100
2023-05-06T00:43:21.615Z,100
2023-05-06T00:53:22.086Z,100
2023-05-06T01:03:22.473Z,100
2023-05-06T01:13:22.535Z,100
2023-05-06T01:23:23.209Z,100
2023-05-06T01:33:23.874Z,100
2023-05-06T01:43:24.642Z,100
2023-05-06T01:53:25.344Z,100
2023-05-06T02:13:26.239Z,100
2023-05-06T02:23:27.142Z,100
2023-05-06T02:33:28.156Z,100
2023-05-06T02:43:28.570Z,100
2023-05-06T02:53:28.810Z,100
2023-05-06T03:03:29.361Z,100
2023-05-06T03:13:29.753Z,100
2023-05-06T03:23:29.847Z,100
2023-05-06T03:33:30.746Z,100
2023-05-06T03:43:31.014Z,100
2023-05-06T03:53:31.846Z,100
2023-05-06T04:03:32.419Z,100
2023-05-06T04:13:33.222Z,100
2023-05-06T04:23:33.535Z,100
2023-05-06T04:33:33.713Z,100
2023-05-06T04:43:34.445Z,100
2023-05-06T04:53:34.518Z,100
2023-05-06T05:03:35.231Z,100
2023-05-06T05:13:35.609Z,100
2023-05-06T05:23:36.173Z,100
2023-05-06T05:33:36.363Z,100
2023-05-06T05:43:36.547Z,100
2023-05-06T05:53:36.632Z,100
2023-05-06T06:03:36.863Z,100
2023-05-06T06:13:36.942Z,100
2023-05-06T06:23:37.235Z,100
2023-05-06T06:33:37.652Z,100
2023-05-06T06:43:38.011Z,100
2023-05-06T06:53:38.849Z,100
2023-05-06T07:03:39.608Z,100
2023-05-06T07:13:39.713Z,100
2023-05-06T07:23:39.875Z,100
2023-05-06T07:33:40.541Z,100
2023-05-06T07:43:41.057Z,100
2023-05-06T07:53:41.476Z,100
2023-05-06T08:03:42.117Z,100
2023-05-06T08:13:42.510Z,99
2023-05-06T08:23:43.028Z,97
2023-05-06T08:33:43.405Z,96
2023-05-06T08:43:43.648Z,95
2023-05-06T09:03:44.450Z,90
2023-05-06T09:13:45.389Z,88
2023-05-06T09:33:46.015Z,90
2023-05-06T09:43:46.387Z,90
2023-05-06T09:53:46.514Z,88
2023-05-06T10:03:47.492Z,85
2023-05-06T10:13:48.469Z,83
2023-05-06T10:23:49.489Z,83
2023-05-06T10:33:49.955Z,85
2023-05-06T10:43:50.409Z,84
2023-05-06T10:53:51.175Z,80
2023-05-06T11:03:51.633Z,81
2023-05-06T11:13:52.433Z,81
2023-05-06T11:23:52.614Z,81
2023-05-06T11:33:53.518Z,76
2023-05-06T11:43:54.502Z,78
2023-05-06T11:53:54.632Z,77
2023-05-06T12:03:54.984Z,77
2023-05-06T12:13:55.906Z,75
2023-05-06T12:23:56.227Z,72
2023-05-06T12:33:58.637Z,72
2023-05-06T12:43:57.702Z,69
2023-05-06T13:03:58.439Z,70
2023-05-06T13:13:58.533Z,69
2023-05-06T13:33:59.621Z,67
2023-05-06T13:43:59.735Z,67
2023-05-06T13:54:00.716Z,67
2023-05-06T14:04:01.376Z,67
2023-05-06T14:14:01.908Z,66
2023-05-06T14:24:02.590Z,66
2023-05-06T14:34:03.517Z,65
2023-05-06T14:44:04.173Z,66
2023-05-06T14:54:05.118Z,66
2023-05-06T15:24:07.233Z,67
2023-05-06T15:34:07.826Z,67
2023-05-06T15:44:09.891Z,67
2023-05-06T16:04:09.762Z,66
2023-05-06T16:14:10.505Z,67
2023-05-06T16:24:11.172Z,68
2023-05-06T17:24:14.690Z,94
2023-05-06T19:24:21.478Z,100
2023-05-06T19:34:22.291Z,100
2023-05-06T19:44:23.332Z,100
2023-05-06T19:54:23.895Z,100
2023-05-06T20:04:24.726Z,100
2023-05-06T20:14:25.661Z,100
2023-05-06T20:24:26.307Z,100
2023-05-06T20:34:26.488Z,100
2023-05-06T20:44:26.679Z,100
2023-05-06T20:54:27.027Z,100
2023-05-06T21:04:27.395Z,100
2023-05-06T21:14:28.285Z,100
2023-05-06T21:24:29.317Z,100
2023-05-06T21:34:30.055Z,100
2023-05-06T21:44:31.040Z,100
2023-05-06T21:54:31.725Z,100
2023-05-06T22:04:32.659Z,100
2023-05-06T22:14:40.419Z,100
2023-05-06T22:34:34.454Z,100
2023-05-06T22:44:35.318Z,100
2023-05-06T22:54:36.382Z,100
2023-05-06T23:14:37.743Z,100
2023-05-06T23:24:38.602Z,100
2023-05-06T23:34:39.082Z,100
2023-05-06T23:44:39.718Z,100
2023-05-06T23:54:40.251Z,100
